sensor_id;sensor_type;location;lat;lon;timestamp;temperature;humidity
69731;SHT31;56996;48.138;11.538;2022-09-03T00:00:39;16.55;53.40
69731;SHT31;56996;48.138;11.538;2022-09-03T00:06:12;16.61;53.41
69731;SHT31;56996;48.138;11.538;2022-09-03T00:08:45;16.62;53.40
69731;SHT31;56996;48.138;11.538;2022-09-03T00:11:25;16.60;53.60
69731;SHT31;56996;48.138;11.538;2022-09-03T00:14:03;16.52;53.81
69731;SHT31;56996;48.138;11.538;2022-09-03T00:16:43;16.52;53.80
69731;SHT31;56996;48.138;11.538;2022-09-03T00:19:16;16.55;53.80
69731;SHT31;56996;48.138;11.538;2022-09-03T00:21:53;16.56;53.83
69731;SHT31;56996;48.138;11.538;2022-09-03T00:24:32;16.56;53.86
69731;SHT31;56996;48.138;11.538;2022-09-03T00:27:03;16.55;53.93
69731;SHT31;56996;48.138;11.538;2022-09-03T00:30:12;16.53;54.07
69731;SHT31;56996;48.138;11.538;2022-09-03T00:35:26;16.43;54.36
69731;SHT31;56996;48.138;11.538;2022-09-03T00:37:59;16.43;54.44
69731;SHT31;56996;48.138;11.538;2022-09-03T00:40:45;16.43;54.48
69731;SHT31;56996;48.138;11.538;2022-09-03T00:43:48;16.37;54.65
69731;SHT31;56996;48.138;11.538;2022-09-03T00:49:57;16.28;55.00
69731;SHT31;56996;48.138;11.538;2022-09-03T00:52:36;16.23;55.05
69731;SHT31;56996;48.138;11.538;2022-09-03T00:58:43;16.15;55.30
69731;SHT31;56996;48.138;11.538;2022-09-03T01:15:41;16.02;56.10
69731;SHT31;56996;48.138;11.538;2022-09-03T01:18:31;16.00;56.28
69731;SHT31;56996;48.138;11.538;2022-09-03T01:23:55;15.97;56.45
69731;SHT31;56996;48.138;11.538;2022-09-03T01:26:51;15.94;56.65
69731;SHT31;56996;48.138;11.538;2022-09-03T01:30:19;15.91;56.77
69731;SHT31;56996;48.138;11.538;2022-09-03T01:32:42;15.88;56.93
69731;SHT31;56996;48.138;11.538;2022-09-03T01:35:39;15.83;57.19
69731;SHT31;56996;48.138;11.538;2022-09-03T01:38:23;15.79;57.36
69731;SHT31;56996;48.138;11.538;2022-09-03T01:51:09;15.53;58.82
69731;SHT31;56996;48.138;11.538;2022-09-03T01:57:00;15.45;58.70
69731;SHT31;56996;48.138;11.538;2022-09-03T02:02:43;15.47;58.80
69731;SHT31;56996;48.138;11.538;2022-09-03T02:05:15;15.44;58.98
69731;SHT31;56996;48.138;11.538;2022-09-03T02:07:43;15.44;58.93
69731;SHT31;56996;48.138;11.538;2022-09-03T02:10:19;15.46;58.92
69731;SHT31;56996;48.138;11.538;2022-09-03T02:12:56;15.47;59.08
69731;SHT31;56996;48.138;11.538;2022-09-03T02:15:30;15.41;59.24
69731;SHT31;56996;48.138;11.538;2022-09-03T02:18:00;15.34;59.45
69731;SHT31;56996;48.138;11.538;2022-09-03T02:20:32;15.34;59.30
69731;SHT31;56996;48.138;11.538;2022-09-03T02:22:59;15.35;59.28
69731;SHT31;56996;48.138;11.538;2022-09-03T02:25:34;15.35;59.31
69731;SHT31;56996;48.138;11.538;2022-09-03T02:28:05;15.33;59.40
69731;SHT31;56996;48.138;11.538;2022-09-03T02:30:43;15.33;59.50
69731;SHT31;56996;48.138;11.538;2022-09-03T02:33:10;15.31;59.57
69731;SHT31;56996;48.138;11.538;2022-09-03T02:35:38;15.30;59.62
69731;SHT31;56996;48.138;11.538;2022-09-03T02:38:13;15.29;59.80
69731;SHT31;56996;48.138;11.538;2022-09-03T02:40:44;15.28;59.83
69731;SHT31;56996;48.138;11.538;2022-09-03T02:43:19;15.28;59.83
69731;SHT31;56996;48.138;11.538;2022-09-03T02:45:54;15.29;59.94
69731;SHT31;56996;48.138;11.538;2022-09-03T02:48:27;15.28;60.04
69731;SHT31;56996;48.138;11.538;2022-09-03T02:50:54;15.27;60.10
69731;SHT31;56996;48.138;11.538;2022-09-03T02:53:21;15.29;60.10
69731;SHT31;56996;48.138;11.538;2022-09-03T02:55:48;15.29;60.11
69731;SHT31;56996;48.138;11.538;2022-09-03T02:58:15;15.25;60.18
69731;SHT31;56996;48.138;11.538;2022-09-03T03:00:41;15.24;60.33
69731;SHT31;56996;48.138;11.538;2022-09-03T03:03:08;15.21;60.82
69731;SHT31;56996;48.138;11.538;2022-09-03T03:05:41;15.12;61.33
69731;SHT31;56996;48.138;11.538;2022-09-03T03:08:12;15.07;61.11
69731;SHT31;56996;48.138;11.538;2022-09-03T03:10:42;15.08;61.11
69731;SHT31;56996;48.138;11.538;2022-09-03T03:13:10;15.08;61.14
69731;SHT31;56996;48.138;11.538;2022-09-03T03:15:38;15.08;61.19
69731;SHT31;56996;48.138;11.538;2022-09-03T03:18:06;15.09;61.20
69731;SHT31;56996;48.138;11.538;2022-09-03T03:20:37;15.10;61.22
69731;SHT31;56996;48.138;11.538;2022-09-03T03:23:04;15.08;61.31
69731;SHT31;56996;48.138;11.538;2022-09-03T03:25:32;15.07;61.39
69731;SHT31;56996;48.138;11.538;2022-09-03T03:28:04;15.06;61.43
69731;SHT31;56996;48.138;11.538;2022-09-03T03:30:32;15.07;61.42
69731;SHT31;56996;48.138;11.538;2022-09-03T03:33:05;15.07;61.50
69731;SHT31;56996;48.138;11.538;2022-09-03T03:35:32;15.06;61.53
69731;SHT31;56996;48.138;11.538;2022-09-03T03:37:59;15.07;61.55
69731;SHT31;56996;48.138;11.538;2022-09-03T03:40:26;15.05;61.75
69731;SHT31;56996;48.138;11.538;2022-09-03T03:42:53;15.02;61.73
69731;SHT31;56996;48.138;11.538;2022-09-03T03:45:20;15.01;61.81
69731;SHT31;56996;48.138;11.538;2022-09-03T03:47:47;15.00;61.84
69731;SHT31;56996;48.138;11.538;2022-09-03T03:50:13;14.98;61.89
69731;SHT31;56996;48.138;11.538;2022-09-03T03:52:42;14.93;62.20
69731;SHT31;56996;48.138;11.538;2022-09-03T03:55:09;14.88;62.27
69731;SHT31;56996;48.138;11.538;2022-09-03T03:57:35;14.88;62.39
69731;SHT31;56996;48.138;11.538;2022-09-03T04:00:02;14.88;62.50
69731;SHT31;56996;48.138;11.538;2022-09-03T04:02:39;14.88;62.65
69731;SHT31;56996;48.138;11.538;2022-09-03T04:05:06;14.86;62.79
69731;SHT31;56996;48.138;11.538;2022-09-03T04:07:34;14.82;62.89
69731;SHT31;56996;48.138;11.538;2022-09-03T04:10:01;14.79;63.01
69731;SHT31;56996;48.138;11.538;2022-09-03T04:12:28;14.75;63.09
69731;SHT31;56996;48.138;11.538;2022-09-03T04:14:55;14.73;63.18
69731;SHT31;56996;48.138;11.538;2022-09-03T04:17:21;14.72;63.29
69731;SHT31;56996;48.138;11.538;2022-09-03T04:19:50;14.69;63.35
69731;SHT31;56996;48.138;11.538;2022-09-03T04:22:17;14.66;63.46
69731;SHT31;56996;48.138;11.538;2022-09-03T04:24:46;14.64;63.57
69731;SHT31;56996;48.138;11.538;2022-09-03T04:27:12;14.61;63.66
69731;SHT31;56996;48.138;11.538;2022-09-03T04:29:39;14.60;63.69
69731;SHT31;56996;48.138;11.538;2022-09-03T04:32:06;14.60;63.78
69731;SHT31;56996;48.138;11.538;2022-09-03T04:34:51;14.61;63.88
69731;SHT31;56996;48.138;11.538;2022-09-03T04:37:18;14.61;63.98
69731;SHT31;56996;48.138;11.538;2022-09-03T04:39:45;14.64;63.98
69731;SHT31;56996;48.138;11.538;2022-09-03T04:42:12;14.69;63.96
69731;SHT31;56996;48.138;11.538;2022-09-03T04:44:39;14.73;63.92
69731;SHT31;56996;48.138;11.538;2022-09-03T04:47:06;14.75;63.86
69731;SHT31;56996;48.138;11.538;2022-09-03T04:49:33;14.75;63.86
69731;SHT31;56996;48.138;11.538;2022-09-03T04:52:00;14.78;63.79
69731;SHT31;56996;48.138;11.538;2022-09-03T04:54:28;14.79;63.83
69731;SHT31;56996;48.138;11.538;2022-09-03T04:56:55;14.77;63.96
69731;SHT31;56996;48.138;11.538;2022-09-03T04:59:22;14.75;64.08
69731;SHT31;56996;48.138;11.538;2022-09-03T05:01:49;14.76;63.97
69731;SHT31;56996;48.138;11.538;2022-09-03T05:04:18;14.85;63.89
69731;SHT31;56996;48.138;11.538;2022-09-03T05:06:45;14.96;63.72
69731;SHT31;56996;48.138;11.538;2022-09-03T05:09:11;15.05;63.49
69731;SHT31;56996;48.138;11.538;2022-09-03T05:11:38;15.12;63.30
69731;SHT31;56996;48.138;11.538;2022-09-03T05:14:05;15.18;62.97
69731;SHT31;56996;48.138;11.538;2022-09-03T05:16:32;15.22;62.87
69731;SHT31;56996;48.138;11.538;2022-09-03T05:18:59;15.28;62.73
69731;SHT31;56996;48.138;11.538;2022-09-03T05:21:27;15.36;62.50
69731;SHT31;56996;48.138;11.538;2022-09-03T05:23:58;15.46;62.34
69731;SHT31;56996;48.138;11.538;2022-09-03T05:26:28;15.56;62.19
69731;SHT31;56996;48.138;11.538;2022-09-03T05:28:59;15.68;62.03
69731;SHT31;56996;48.138;11.538;2022-09-03T05:31:28;15.75;61.84
69731;SHT31;56996;48.138;11.538;2022-09-03T05:33:58;15.80;61.92
69731;SHT31;56996;48.138;11.538;2022-09-03T05:36:32;15.90;61.74
69731;SHT31;56996;48.138;11.538;2022-09-03T05:39:02;16.07;61.49
69731;SHT31;56996;48.138;11.538;2022-09-03T05:41:30;16.16;61.34
69731;SHT31;56996;48.138;11.538;2022-09-03T05:43:58;16.23;61.16
69731;SHT31;56996;48.138;11.538;2022-09-03T05:46:26;16.30;61.02
69731;SHT31;56996;48.138;11.538;2022-09-03T05:49:01;16.37;61.02
69731;SHT31;56996;48.138;11.538;2022-09-03T05:51:31;16.34;61.30
69731;SHT31;56996;48.138;11.538;2022-09-03T05:53:59;16.32;61.50
69731;SHT31;56996;48.138;11.538;2022-09-03T05:56:29;16.26;61.59
69731;SHT31;56996;48.138;11.538;2022-09-03T05:58:58;16.20;61.58
69731;SHT31;56996;48.138;11.538;2022-09-03T06:01:31;16.21;61.53
69731;SHT31;56996;48.138;11.538;2022-09-03T06:04:16;16.33;61.28
69731;SHT31;56996;48.138;11.538;2022-09-03T06:06:44;16.36;61.19
69731;SHT31;56996;48.138;11.538;2022-09-03T06:09:13;16.46;61.02
69731;SHT31;56996;48.138;11.538;2022-09-03T06:11:43;16.61;60.74
69731;SHT31;56996;48.138;11.538;2022-09-03T06:14:12;16.61;60.76
69731;SHT31;56996;48.138;11.538;2022-09-03T06:16:41;16.60;60.84
69731;SHT31;56996;48.138;11.538;2022-09-03T06:19:11;16.67;60.75
69731;SHT31;56996;48.138;11.538;2022-09-03T06:21:40;17.01;60.01
69731;SHT31;56996;48.138;11.538;2022-09-03T06:24:09;17.79;58.52
69731;SHT31;56996;48.138;11.538;2022-09-03T06:26:40;18.35;57.08
69731;SHT31;56996;48.138;11.538;2022-09-03T06:29:08;18.31;57.06
69731;SHT31;56996;48.138;11.538;2022-09-03T06:31:36;18.08;56.98
69731;SHT31;56996;48.138;11.538;2022-09-03T06:34:03;17.76;57.78
69731;SHT31;56996;48.138;11.538;2022-09-03T06:36:30;17.63;58.17
69731;SHT31;56996;48.138;11.538;2022-09-03T06:38:57;17.53;58.37
69731;SHT31;56996;48.138;11.538;2022-09-03T06:41:25;17.48;58.53
69731;SHT31;56996;48.138;11.538;2022-09-03T06:44:02;17.44;58.73
69731;SHT31;56996;48.138;11.538;2022-09-03T06:46:36;17.44;58.78
69731;SHT31;56996;48.138;11.538;2022-09-03T06:49:07;17.57;58.63
69731;SHT31;56996;48.138;11.538;2022-09-03T06:51:36;17.64;58.60
69731;SHT31;56996;48.138;11.538;2022-09-03T06:54:05;17.70;58.64
69731;SHT31;56996;48.138;11.538;2022-09-03T06:56:34;17.67;58.63
69731;SHT31;56996;48.138;11.538;2022-09-03T06:59:07;17.61;58.85
69731;SHT31;56996;48.138;11.538;2022-09-03T07:01:40;17.63;58.82
69731;SHT31;56996;48.138;11.538;2022-09-03T07:04:13;17.60;58.96
69731;SHT31;56996;48.138;11.538;2022-09-03T07:06:46;17.63;59.19
69731;SHT31;56996;48.138;11.538;2022-09-03T07:09:13;17.64;59.15
69731;SHT31;56996;48.138;11.538;2022-09-03T07:11:44;17.61;59.06
69731;SHT31;56996;48.138;11.538;2022-09-03T07:14:17;17.55;59.06
69731;SHT31;56996;48.138;11.538;2022-09-03T07:16:47;17.52;59.28
69731;SHT31;56996;48.138;11.538;2022-09-03T07:19:15;17.51;59.67
69731;SHT31;56996;48.138;11.538;2022-09-03T07:21:42;17.50;59.84
69731;SHT31;56996;48.138;11.538;2022-09-03T07:24:15;17.47;59.99
69731;SHT31;56996;48.138;11.538;2022-09-03T07:26:45;17.49;60.13
69731;SHT31;56996;48.138;11.538;2022-09-03T07:29:13;17.50;60.01
69731;SHT31;56996;48.138;11.538;2022-09-03T07:31:46;17.48;59.97
69731;SHT31;56996;48.138;11.538;2022-09-03T07:34:17;17.46;60.01
69731;SHT31;56996;48.138;11.538;2022-09-03T07:36:45;17.44;60.30
69731;SHT31;56996;48.138;11.538;2022-09-03T07:39:16;17.46;60.45
69731;SHT31;56996;48.138;11.538;2022-09-03T07:41:44;17.48;60.54
69731;SHT31;56996;48.138;11.538;2022-09-03T07:44:12;17.50;60.53
69731;SHT31;56996;48.138;11.538;2022-09-03T07:46:41;17.51;60.56
69731;SHT31;56996;48.138;11.538;2022-09-03T07:49:10;17.50;60.60
69731;SHT31;56996;48.138;11.538;2022-09-03T07:51:37;17.52;60.83
69731;SHT31;56996;48.138;11.538;2022-09-03T07:54:06;17.52;61.12
69731;SHT31;56996;48.138;11.538;2022-09-03T07:56:37;17.55;61.19
69731;SHT31;56996;48.138;11.538;2022-09-03T07:59:06;17.58;61.76
69731;SHT31;56996;48.138;11.538;2022-09-03T08:01:35;17.61;62.06
69731;SHT31;56996;48.138;11.538;2022-09-03T08:04:07;17.62;62.90
69731;SHT31;56996;48.138;11.538;2022-09-03T08:06:35;17.63;63.32
69731;SHT31;56996;48.138;11.538;2022-09-03T08:09:04;17.64;63.73
69731;SHT31;56996;48.138;11.538;2022-09-03T08:11:41;17.67;64.02
69731;SHT31;56996;48.138;11.538;2022-09-03T08:14:10;17.71;64.18
69731;SHT31;56996;48.138;11.538;2022-09-03T08:16:40;17.77;64.32
69731;SHT31;56996;48.138;11.538;2022-09-03T08:19:15;17.77;64.53
69731;SHT31;56996;48.138;11.538;2022-09-03T08:21:44;17.83;64.98
69731;SHT31;56996;48.138;11.538;2022-09-03T08:24:13;17.98;65.08
69731;SHT31;56996;48.138;11.538;2022-09-03T08:26:42;18.21;65.03
69731;SHT31;56996;48.138;11.538;2022-09-03T08:29:17;18.69;64.26
69731;SHT31;56996;48.138;11.538;2022-09-03T08:31:44;19.05;63.63
69731;SHT31;56996;48.138;11.538;2022-09-03T08:34:11;19.21;63.26
69731;SHT31;56996;48.138;11.538;2022-09-03T08:36:40;19.31;63.09
69731;SHT31;56996;48.138;11.538;2022-09-03T08:39:07;19.43;62.77
69731;SHT31;56996;48.138;11.538;2022-09-03T08:41:47;19.61;62.48
69731;SHT31;56996;48.138;11.538;2022-09-03T08:44:54;19.84;61.97
69731;SHT31;56996;48.138;11.538;2022-09-03T08:55:37;20.74;60.21
69731;SHT31;56996;48.138;11.538;2022-09-03T08:58:24;21.13;59.22
69731;SHT31;56996;48.138;11.538;2022-09-03T09:00:54;21.49;58.59
69731;SHT31;56996;48.138;11.538;2022-09-03T09:03:36;21.90;57.67
69731;SHT31;56996;48.138;11.538;2022-09-03T09:15:02;24.11;53.06
69731;SHT31;56996;48.138;11.538;2022-09-03T09:17:53;24.07;53.08
69731;SHT31;56996;48.138;11.538;2022-09-03T09:23:23;25.02;51.40
69731;SHT31;56996;48.138;11.538;2022-09-03T09:25:53;25.46;50.21
69731;SHT31;56996;48.138;11.538;2022-09-03T09:28:24;25.59;49.60
69731;SHT31;56996;48.138;11.538;2022-09-03T09:31:00;26.18;48.36
69731;SHT31;56996;48.138;11.538;2022-09-03T09:33:31;26.62;47.33
69731;SHT31;56996;48.138;11.538;2022-09-03T09:36:05;26.53;46.80
69731;SHT31;56996;48.138;11.538;2022-09-03T09:38:37;26.43;46.93
69731;SHT31;56996;48.138;11.538;2022-09-03T09:41:12;26.57;46.52
69731;SHT31;56996;48.138;11.538;2022-09-03T09:43:41;26.72;46.05
69731;SHT31;56996;48.138;11.538;2022-09-03T09:46:14;27.06;45.70
69731;SHT31;56996;48.138;11.538;2022-09-03T09:56:45;28.81;42.15
69731;SHT31;56996;48.138;11.538;2022-09-03T09:59:24;28.80;41.61
69731;SHT31;56996;48.138;11.538;2022-09-03T10:02:01;28.78;41.24
69731;SHT31;56996;48.138;11.538;2022-09-03T10:04:48;28.48;41.11
69731;SHT31;56996;48.138;11.538;2022-09-03T10:10:31;27.48;42.06
69731;SHT31;56996;48.138;11.538;2022-09-03T10:15:36;27.46;42.05
69731;SHT31;56996;48.138;11.538;2022-09-03T10:18:16;27.38;41.61
69731;SHT31;56996;48.138;11.538;2022-09-03T10:21:07;27.17;41.49
69731;SHT31;56996;48.138;11.538;2022-09-03T10:23:49;26.97;41.38
69731;SHT31;56996;48.138;11.538;2022-09-03T10:26:23;26.86;41.83
69731;SHT31;56996;48.138;11.538;2022-09-03T10:28:58;26.90;41.59
69731;SHT31;56996;48.138;11.538;2022-09-03T10:31:40;26.93;41.78
69731;SHT31;56996;48.138;11.538;2022-09-03T10:34:31;27.05;41.87
69731;SHT31;56996;48.138;11.538;2022-09-03T10:51:24;27.46;41.56
69731;SHT31;56996;48.138;11.538;2022-09-03T11:02:40;27.24;41.30
69731;SHT31;56996;48.138;11.538;2022-09-03T11:06:06;27.25;40.52
69731;SHT31;56996;48.138;11.538;2022-09-03T11:08:43;27.31;40.95
69731;SHT31;56996;48.138;11.538;2022-09-03T11:11:33;27.29;40.75
69731;SHT31;56996;48.138;11.538;2022-09-03T11:14:14;27.22;41.17
69731;SHT31;56996;48.138;11.538;2022-09-03T11:16:51;27.26;41.02
69731;SHT31;56996;48.138;11.538;2022-09-03T11:19:36;27.21;40.81
69731;SHT31;56996;48.138;11.538;2022-09-03T11:22:13;27.19;41.06
69731;SHT31;56996;48.138;11.538;2022-09-03T11:24:48;27.13;40.76
69731;SHT31;56996;48.138;11.538;2022-09-03T11:27:25;27.12;40.44
69731;SHT31;56996;48.138;11.538;2022-09-03T11:30:08;27.16;40.34
69731;SHT31;56996;48.138;11.538;2022-09-03T11:32:43;27.12;40.03
69731;SHT31;56996;48.138;11.538;2022-09-03T11:35:26;26.77;40.18
69731;SHT31;56996;48.138;11.538;2022-09-03T11:38:04;26.43;40.80
69731;SHT31;56996;48.138;11.538;2022-09-03T11:43:41;26.11;41.63
69731;SHT31;56996;48.138;11.538;2022-09-03T11:48:55;26.18;41.53
69731;SHT31;56996;48.138;11.538;2022-09-03T11:51:38;26.18;41.09
69731;SHT31;56996;48.138;11.538;2022-09-03T11:56:46;26.14;41.39
69731;SHT31;56996;48.138;11.538;2022-09-03T11:59:19;26.22;41.42
69731;SHT31;56996;48.138;11.538;2022-09-03T12:19:06;25.95;41.45
69731;SHT31;56996;48.138;11.538;2022-09-03T12:21:47;26.10;41.32
69731;SHT31;56996;48.138;11.538;2022-09-03T12:24:14;26.15;40.81
69731;SHT31;56996;48.138;11.538;2022-09-03T12:26:42;26.13;40.83
69731;SHT31;56996;48.138;11.538;2022-09-03T12:32:18;26.20;40.71
69731;SHT31;56996;48.138;11.538;2022-09-03T12:34:49;26.28;40.67
69731;SHT31;56996;48.138;11.538;2022-09-03T12:37:20;26.30;40.57
69731;SHT31;56996;48.138;11.538;2022-09-03T12:42:47;26.04;39.86
69731;SHT31;56996;48.138;11.538;2022-09-03T12:45:19;26.06;39.73
69731;SHT31;56996;48.138;11.538;2022-09-03T12:47:49;26.09;39.48
69731;SHT31;56996;48.138;11.538;2022-09-03T12:50:18;26.12;40.07
69731;SHT31;56996;48.138;11.538;2022-09-03T13:06:24;27.09;39.47
69731;SHT31;56996;48.138;11.538;2022-09-03T13:08:59;27.00;39.40
69731;SHT31;56996;48.138;11.538;2022-09-03T13:11:31;26.84;39.41
69731;SHT31;56996;48.138;11.538;2022-09-03T13:14:04;26.69;39.69
69731;SHT31;56996;48.138;11.538;2022-09-03T13:27:45;25.97;40.99
69731;SHT31;56996;48.138;11.538;2022-09-03T13:30:37;25.83;41.24
69731;SHT31;56996;48.138;11.538;2022-09-03T13:36:20;25.70;41.15
69731;SHT31;56996;48.138;11.538;2022-09-03T13:38:58;25.66;41.27
69731;SHT31;56996;48.138;11.538;2022-09-03T13:44:15;25.44;41.77
69731;SHT31;56996;48.138;11.538;2022-09-03T13:47:01;25.29;42.18
69731;SHT31;56996;48.138;11.538;2022-09-03T13:49:50;25.19;42.31
69731;SHT31;56996;48.138;11.538;2022-09-03T13:52:44;25.03;42.49
69731;SHT31;56996;48.138;11.538;2022-09-03T13:55:19;25.01;42.80
69731;SHT31;56996;48.138;11.538;2022-09-03T13:57:53;24.99;42.93
69731;SHT31;56996;48.138;11.538;2022-09-03T14:00:42;24.92;43.09
69731;SHT31;56996;48.138;11.538;2022-09-03T14:12:17;24.65;44.44
69731;SHT31;56996;48.138;11.538;2022-09-03T14:15:48;24.55;44.75
69731;SHT31;56996;48.138;11.538;2022-09-03T14:21:28;24.40;44.88
69731;SHT31;56996;48.138;11.538;2022-09-03T14:26:53;24.25;46.03
69731;SHT31;56996;48.138;11.538;2022-09-03T14:29:29;23.96;51.96
69731;SHT31;56996;48.138;11.538;2022-09-03T14:32:20;23.34;55.23
69731;SHT31;56996;48.138;11.538;2022-09-03T14:43:26;21.17;57.15
69731;SHT31;56996;48.138;11.538;2022-09-03T14:51:53;20.62;58.99
69731;SHT31;56996;48.138;11.538;2022-09-03T15:00:15;20.20;61.28
69731;SHT31;56996;48.138;11.538;2022-09-03T15:02:53;20.03;61.75
69731;SHT31;56996;48.138;11.538;2022-09-03T15:11:25;19.85;62.27
69731;SHT31;56996;48.138;11.538;2022-09-03T15:14:14;19.80;62.72
69731;SHT31;56996;48.138;11.538;2022-09-03T15:16:52;19.58;63.33
69731;SHT31;56996;48.138;11.538;2022-09-03T15:19:52;19.53;64.19
69731;SHT31;56996;48.138;11.538;2022-09-03T15:31:54;19.41;65.51
69731;SHT31;56996;48.138;11.538;2022-09-03T15:37:31;19.26;66.52
69731;SHT31;56996;48.138;11.538;2022-09-03T15:40:35;19.23;66.59
69731;SHT31;56996;48.138;11.538;2022-09-03T15:43:22;19.17;66.69
69731;SHT31;56996;48.138;11.538;2022-09-03T15:45:58;19.14;67.05
69731;SHT31;56996;48.138;11.538;2022-09-03T15:48:38;19.10;67.14
69731;SHT31;56996;48.138;11.538;2022-09-03T15:51:41;19.04;66.79
69731;SHT31;56996;48.138;11.538;2022-09-03T15:54:42;18.95;67.20
69731;SHT31;56996;48.138;11.538;2022-09-03T16:02:39;18.95;68.37
69731;SHT31;56996;48.138;11.538;2022-09-03T16:16:44;19.13;68.29
69731;SHT31;56996;48.138;11.538;2022-09-03T16:19:42;19.23;68.27
69731;SHT31;56996;48.138;11.538;2022-09-03T16:22:29;19.33;68.26
69731;SHT31;56996;48.138;11.538;2022-09-03T16:25:14;19.40;68.58
69731;SHT31;56996;48.138;11.538;2022-09-03T16:36:57;19.52;67.86
69731;SHT31;56996;48.138;11.538;2022-09-03T16:46:14;19.35;68.44
69731;SHT31;56996;48.138;11.538;2022-09-03T17:01:12;18.84;70.43
69731;SHT31;56996;48.138;11.538;2022-09-03T17:03:58;18.75;70.69
69731;SHT31;56996;48.138;11.538;2022-09-03T17:27:11;18.39;72.81
69731;SHT31;56996;48.138;11.538;2022-09-03T17:30:20;18.38;72.99
69731;SHT31;56996;48.138;11.538;2022-09-03T17:36:24;18.38;73.35
69731;SHT31;56996;48.138;11.538;2022-09-03T17:42:03;18.29;73.39
69731;SHT31;56996;48.138;11.538;2022-09-03T17:47:46;18.09;73.18
69731;SHT31;56996;48.138;11.538;2022-09-03T17:50:55;18.05;73.23
69731;SHT31;56996;48.138;11.538;2022-09-03T17:56:21;17.92;72.75
69731;SHT31;56996;48.138;11.538;2022-09-03T17:59:16;17.81;72.84
69731;SHT31;56996;48.138;11.538;2022-09-03T18:02:07;17.72;73.11
69731;SHT31;56996;48.138;11.538;2022-09-03T18:07:51;17.56;73.12
69731;SHT31;56996;48.138;11.538;2022-09-03T18:16:24;17.40;73.09
69731;SHT31;56996;48.138;11.538;2022-09-03T18:19:13;17.34;73.05
69731;SHT31;56996;48.138;11.538;2022-09-03T18:21:56;17.31;73.25
69731;SHT31;56996;48.138;11.538;2022-09-03T18:24:48;17.27;72.96
69731;SHT31;56996;48.138;11.538;2022-09-03T18:27:44;17.24;73.12
69731;SHT31;56996;48.138;11.538;2022-09-03T18:30:34;17.20;73.29
69731;SHT31;56996;48.138;11.538;2022-09-03T18:33:22;17.16;73.37
69731;SHT31;56996;48.138;11.538;2022-09-03T18:36:10;17.11;73.52
69731;SHT31;56996;48.138;11.538;2022-09-03T18:39:00;17.06;73.68
69731;SHT31;56996;48.138;11.538;2022-09-03T18:48:59;16.89;74.19
69731;SHT31;56996;48.138;11.538;2022-09-03T18:51:58;16.84;74.42
69731;SHT31;56996;48.138;11.538;2022-09-03T18:58:24;16.77;74.57
69731;SHT31;56996;48.138;11.538;2022-09-03T19:01:37;16.73;74.65
69731;SHT31;56996;48.138;11.538;2022-09-03T19:04:33;16.68;74.80
69731;SHT31;56996;48.138;11.538;2022-09-03T19:11:29;16.54;75.10
69731;SHT31;56996;48.138;11.538;2022-09-03T19:18:09;16.47;75.40
69731;SHT31;56996;48.138;11.538;2022-09-03T19:24:29;16.40;75.77
69731;SHT31;56996;48.138;11.538;2022-09-03T19:30:32;16.33;76.05
69731;SHT31;56996;48.138;11.538;2022-09-03T19:33:44;16.27;76.27
69731;SHT31;56996;48.138;11.538;2022-09-03T19:43:28;16.20;76.69
69731;SHT31;56996;48.138;11.538;2022-09-03T19:46:58;16.16;76.89
69731;SHT31;56996;48.138;11.538;2022-09-03T19:49:59;16.16;76.97
69731;SHT31;56996;48.138;11.538;2022-09-03T19:53:09;16.14;77.08
69731;SHT31;56996;48.138;11.538;2022-09-03T19:55:59;16.12;77.09
69731;SHT31;56996;48.138;11.538;2022-09-03T19:58:53;16.10;77.20
69731;SHT31;56996;48.138;11.538;2022-09-03T20:01:41;16.06;77.31
69731;SHT31;56996;48.138;11.538;2022-09-03T20:04:32;16.04;77.33
69731;SHT31;56996;48.138;11.538;2022-09-03T20:07:23;16.03;77.42
69731;SHT31;56996;48.138;11.538;2022-09-03T20:10:10;15.99;77.52
69731;SHT31;56996;48.138;11.538;2022-09-03T20:27:35;15.85;77.97
69731;SHT31;56996;48.138;11.538;2022-09-03T20:30:44;15.83;78.07
69731;SHT31;56996;48.138;11.538;2022-09-03T20:42:32;15.81;78.19
69731;SHT31;56996;48.138;11.538;2022-09-03T20:56:00;15.81;78.17
69731;SHT31;56996;48.138;11.538;2022-09-03T21:04:49;15.80;78.20
69731;SHT31;56996;48.138;11.538;2022-09-03T21:16:28;15.74;78.11
69731;SHT31;56996;48.138;11.538;2022-09-03T21:19:36;15.73;78.16
69731;SHT31;56996;48.138;11.538;2022-09-03T21:24:55;15.75;78.11
69731;SHT31;56996;48.138;11.538;2022-09-03T21:30:29;15.73;78.19
69731;SHT31;56996;48.138;11.538;2022-09-03T21:33:11;15.74;78.21
69731;SHT31;56996;48.138;11.538;2022-09-03T21:35:46;15.73;78.25
69731;SHT31;56996;48.138;11.538;2022-09-03T21:38:25;15.72;78.19
69731;SHT31;56996;48.138;11.538;2022-09-03T21:40:58;15.71;78.26
69731;SHT31;56996;48.138;11.538;2022-09-03T21:43:41;15.70;78.33
69731;SHT31;56996;48.138;11.538;2022-09-03T21:46:42;15.69;78.39
69731;SHT31;56996;48.138;11.538;2022-09-03T21:49:11;15.69;78.43
69731;SHT31;56996;48.138;11.538;2022-09-03T21:51:56;15.69;78.47
69731;SHT31;56996;48.138;11.538;2022-09-03T21:54:29;15.67;78.43
69731;SHT31;56996;48.138;11.538;2022-09-03T22:00:09;15.65;78.47
69731;SHT31;56996;48.138;11.538;2022-09-03T22:02:45;15.65;78.52
69731;SHT31;56996;48.138;11.538;2022-09-03T22:05:13;15.64;78.48
69731;SHT31;56996;48.138;11.538;2022-09-03T22:10:43;15.64;78.50
69731;SHT31;56996;48.138;11.538;2022-09-03T22:16:11;15.63;78.43
69731;SHT31;56996;48.138;11.538;2022-09-03T22:18:45;15.63;78.45
69731;SHT31;56996;48.138;11.538;2022-09-03T22:21:19;15.63;78.51
69731;SHT31;56996;48.138;11.538;2022-09-03T22:24:07;15.64;78.50
69731;SHT31;56996;48.138;11.538;2022-09-03T22:26:54;15.64;78.40
69731;SHT31;56996;48.138;11.538;2022-09-03T22:29:43;15.64;78.40
69731;SHT31;56996;48.138;11.538;2022-09-03T22:52:53;15.58;78.60
69731;SHT31;56996;48.138;11.538;2022-09-03T22:56:12;15.54;78.69
69731;SHT31;56996;48.138;11.538;2022-09-03T23:01:43;15.56;78.70
69731;SHT31;56996;48.138;11.538;2022-09-03T23:07:20;15.56;78.67
69731;SHT31;56996;48.138;11.538;2022-09-03T23:09:56;15.55;78.62
69731;SHT31;56996;48.138;11.538;2022-09-03T23:12:32;15.54;78.66
69731;SHT31;56996;48.138;11.538;2022-09-03T23:15:06;15.52;78.69
69731;SHT31;56996;48.138;11.538;2022-09-03T23:17:41;15.53;78.62
69731;SHT31;56996;48.138;11.538;2022-09-03T23:20:18;15.51;78.62
69731;SHT31;56996;48.138;11.538;2022-09-03T23:25:47;15.48;78.62